createdAt,value
2023-07-01T00:02:00.054Z,96693.23
2023-07-01T00:04:28.980Z,96688.45
2023-07-01T00:06:57.093Z,96688.19
2023-07-01T00:09:24.567Z,96686.39
2023-07-01T00:11:51.807Z,96684.27
2023-07-01T00:14:18.686Z,96685.93
2023-07-01T00:16:46.057Z,96689.43
2023-07-01T00:19:13.749Z,96686.15
2023-07-01T00:21:40.692Z,96683.54
2023-07-01T00:24:08.142Z,96682.65
2023-07-01T00:26:34.816Z,96678.63
2023-07-01T00:29:02.022Z,96677.78
2023-07-01T00:31:29.030Z,96677.10
2023-07-01T00:33:56.959Z,96676.52
2023-07-01T00:36:25.112Z,96675.01
2023-07-01T00:38:51.949Z,96673.64
2023-07-01T00:41:22.136Z,96671.48
2023-07-01T00:43:49.769Z,96677.15
2023-07-01T00:46:17.260Z,96675.10
2023-07-01T00:48:44.465Z,96673.35
2023-07-01T00:51:13.537Z,96674.10
2023-07-01T00:53:41.471Z,96672.78
2023-07-01T00:56:08.536Z,96669.09
2023-07-01T00:58:35.816Z,96667.70
2023-07-01T01:01:12.774Z,96664.56
2023-07-01T01:03:48.397Z,96660.98
2023-07-01T01:06:20.317Z,96663.45
2023-07-01T01:09:11.143Z,96663.88
2023-07-01T01:11:43.638Z,96661.91
2023-07-01T01:14:12.757Z,96658.77
2023-07-01T01:16:42.150Z,96655.07
2023-07-01T01:19:27.872Z,96653.29
2023-07-01T01:22:14.877Z,96648.77
2023-07-01T01:24:46.647Z,96642.84
2023-07-01T01:27:18.860Z,96637.52
2023-07-01T01:29:46.559Z,96639.12
2023-07-01T01:32:13.484Z,96638.95
2023-07-01T01:34:40.180Z,96635.23
2023-07-01T01:37:30.650Z,96630.02
2023-07-01T01:40:10.402Z,96626.45
2023-07-01T01:42:41.178Z,96626.61
2023-07-01T01:45:08.768Z,96621.38
2023-07-01T01:47:37.037Z,96621.98
2023-07-01T01:50:09.210Z,96620.58
2023-07-01T01:52:39.175Z,96620.97
2023-07-01T01:55:08.802Z,96622.39
2023-07-01T01:57:36.341Z,96623.60
2023-07-01T02:00:08.871Z,96616.27
2023-07-01T02:02:41.818Z,96615.85
2023-07-01T02:05:09.005Z,96610.21
2023-07-01T02:07:36.412Z,96608.04
2023-07-01T02:10:03.592Z,96604.94
2023-07-01T02:12:30.425Z,96604.91
2023-07-01T02:14:58.054Z,96608.42
2023-07-01T02:17:24.934Z,96605.98
2023-07-01T02:19:52.156Z,96607.66
2023-07-01T02:22:19.006Z,96608.91
2023-07-01T02:24:45.966Z,96615.58
2023-07-01T02:27:12.881Z,96615.98
2023-07-01T02:29:39.857Z,96617.55
2023-07-01T02:32:07.175Z,96615.19
2023-07-01T02:34:35.415Z,96617.91
2023-07-01T02:37:02.394Z,96615.48
2023-07-01T02:39:29.104Z,96616.57
2023-07-01T02:41:55.853Z,96615.73
2023-07-01T02:44:22.708Z,96610.29
2023-07-01T02:46:50.118Z,96612.09
2023-07-01T02:49:17.757Z,96612.48
2023-07-01T02:51:44.626Z,96615.60
2023-07-01T02:54:11.445Z,96616.90
2023-07-01T02:56:38.577Z,96616.31
2023-07-01T02:59:05.947Z,96617.68
2023-07-01T03:01:32.879Z,96616.02
2023-07-01T03:04:05.738Z,96611.80
2023-07-01T03:06:47.023Z,96611.44
2023-07-01T03:09:15.325Z,96608.66
2023-07-01T03:11:42.595Z,96607.56
2023-07-01T03:14:09.234Z,96604.91
2023-07-01T03:16:36.205Z,96604.09
2023-07-01T03:19:06.333Z,96606.09
2023-07-01T03:21:34.552Z,96607.43
2023-07-01T03:24:01.688Z,96607.95
2023-07-01T03:26:28.529Z,96606.45
2023-07-01T03:28:55.851Z,96603.58
2023-07-01T03:31:24.429Z,96605.20
2023-07-01T03:33:52.228Z,96606.66
2023-07-01T03:36:19.302Z,96606.33
2023-07-01T03:38:47.042Z,96604.23
2023-07-01T03:41:13.915Z,96603.10
2023-07-01T03:43:40.749Z,96604.27
2023-07-01T03:46:07.530Z,96597.11
2023-07-01T03:48:34.964Z,96598.84
2023-07-01T03:51:01.994Z,96593.64
2023-07-01T03:53:28.962Z,96594.15
2023-07-01T03:55:56.274Z,96596.44
2023-07-01T03:58:25.630Z,96596.41
2023-07-01T04:00:54.385Z,96593.90
2023-07-01T04:03:24.196Z,96591.93
2023-07-01T04:05:52.796Z,96594.42
2023-07-01T04:08:22.159Z,96597.60
2023-07-01T04:10:49.953Z,96598.55
2023-07-01T04:13:16.689Z,96599.89
2023-07-01T04:15:43.632Z,96601.16
2023-07-01T04:18:11.036Z,96600.71
2023-07-01T04:20:38.131Z,96598.61
2023-07-01T04:23:04.832Z,96594.95
2023-07-01T04:25:31.812Z,96592.85
2023-07-01T04:27:59.818Z,96593.11
2023-07-01T04:30:26.703Z,96595.69
2023-07-01T04:32:53.777Z,96589.20
2023-07-01T04:35:20.692Z,96591.31
2023-07-01T04:37:48.043Z,96588.65
2023-07-01T04:40:15.915Z,96592.74
2023-07-01T04:42:51.003Z,96591.73
2023-07-01T04:45:21.684Z,96588.73
2023-07-01T04:47:49.406Z,96583.86
2023-07-01T04:50:17.016Z,96586.68
2023-07-01T04:52:44.351Z,96587.22
2023-07-01T04:55:11.971Z,96585.06
2023-07-01T04:57:38.795Z,96585.77
2023-07-01T05:00:10.477Z,96584.64
2023-07-01T05:02:38.176Z,96587.32
2023-07-01T05:05:06.841Z,96587.29
2023-07-01T05:07:33.923Z,96590.48
2023-07-01T05:10:00.791Z,96584.31
2023-07-01T05:12:27.566Z,96591.19
2023-07-01T05:14:55.747Z,96585.29
2023-07-01T05:17:22.704Z,96583.30
2023-07-01T05:19:49.597Z,96582.83
2023-07-01T05:22:16.579Z,96585.40
2023-07-01T05:24:43.903Z,96589.23
2023-07-01T05:27:10.745Z,96592.63
2023-07-01T05:29:37.811Z,96592.48
2023-07-01T05:32:05.087Z,96589.68
2023-07-01T05:34:31.973Z,96593.53
2023-07-01T05:36:58.896Z,96587.29
2023-07-01T05:39:26.724Z,96586.71
2023-07-01T05:41:53.872Z,96588.34
2023-07-01T05:44:20.604Z,96589.08
2023-07-01T05:46:47.423Z,96587.13
2023-07-01T05:49:14.487Z,96582.41
2023-07-01T05:51:41.878Z,96576.11
2023-07-01T05:54:08.948Z,96573.16
2023-07-01T05:56:36.053Z,96573.48
2023-07-01T05:59:03.671Z,96573.10
2023-07-01T06:01:30.917Z,96572.95
2023-07-01T06:03:58.063Z,96573.71
2023-07-01T06:06:24.974Z,96574.57
2023-07-01T06:08:51.902Z,96575.38
2023-07-01T06:11:19.276Z,96574.20
2023-07-01T06:13:48.264Z,96574.48
2023-07-01T06:16:15.902Z,96562.23
2023-07-01T06:18:43.842Z,96561.03
2023-07-01T06:21:10.664Z,96559.19
2023-07-01T06:23:38.524Z,96559.26
2023-07-01T06:26:06.152Z,96559.83
2023-07-01T06:28:33.628Z,96561.14
2023-07-01T06:31:00.998Z,96561.09
2023-07-01T06:33:28.028Z,96563.23
2023-07-01T06:35:55.369Z,96564.93
2023-07-01T06:38:22.660Z,96566.02
2023-07-01T06:40:50.763Z,96568.24
2023-07-01T06:43:18.017Z,96564.67
2023-07-01T06:45:45.081Z,96565.32
2023-07-01T06:48:12.260Z,96565.72
2023-07-01T06:50:40.546Z,96569.23
2023-07-01T06:53:07.720Z,96561.64
2023-07-01T06:55:36.449Z,96558.45
2023-07-01T06:58:03.654Z,96557.80
2023-07-01T07:00:31.136Z,96556.48
2023-07-01T07:02:58.232Z,96553.20
2023-07-01T07:05:25.236Z,96551.71
2023-07-01T07:07:53.257Z,96551.27
2023-07-01T07:10:19.981Z,96553.27
2023-07-01T07:12:46.707Z,96550.70
2023-07-01T07:15:13.587Z,96548.95
2023-07-01T07:17:40.550Z,96542.76
2023-07-01T07:20:08.940Z,96541.61
2023-07-01T07:22:36.363Z,96541.92
2023-07-01T07:25:03.484Z,96539.67
2023-07-01T07:27:30.284Z,96537.34
2023-07-01T07:29:57.154Z,96537.34
2023-07-01T07:32:23.955Z,96538.54
2023-07-01T07:34:50.807Z,96538.20
2023-07-01T07:37:17.633Z,96542.25
2023-07-01T07:39:44.782Z,96542.18
2023-07-01T07:42:12.251Z,96542.23
2023-07-01T07:44:39.233Z,96537.83
2023-07-01T07:47:06.436Z,96534.77
2023-07-01T07:49:33.437Z,96531.39
2023-07-01T07:52:01.893Z,96531.57
2023-07-01T07:54:29.448Z,96530.58
2023-07-01T07:56:59.783Z,96526.39
2023-07-01T07:59:27.607Z,96526.31
2023-07-01T08:01:56.722Z,96523.39
2023-07-01T08:04:26.726Z,96516.33
2023-07-01T08:06:53.768Z,96512.59
2023-07-01T08:09:21.041Z,96514.23
2023-07-01T08:11:48.014Z,96508.91
2023-07-01T08:14:14.881Z,96510.96
2023-07-01T08:16:42.998Z,96508.84
2023-07-01T08:19:10.726Z,96500.76
2023-07-01T08:21:38.522Z,96500.97
2023-07-01T08:24:09.379Z,96500.17
2023-07-01T08:26:36.623Z,96503.21
2023-07-01T08:29:06.795Z,96504.09
2023-07-01T08:31:34.147Z,96501.21
2023-07-01T08:34:03.084Z,96498.76
2023-07-01T08:36:30.533Z,96496.65
2023-07-01T08:38:57.610Z,96495.39
2023-07-01T08:41:26.239Z,96491.32
2023-07-01T08:43:54.092Z,96490.76
2023-07-01T08:46:23.446Z,96489.39
2023-07-01T08:48:50.998Z,96489.59
2023-07-01T08:51:26.569Z,96487.23
2023-07-01T08:53:54.851Z,96485.63
2023-07-01T08:56:22.656Z,96485.15
2023-07-01T08:58:50.182Z,96485.09
2023-07-01T09:01:18.338Z,96481.48
2023-07-01T09:03:49.373Z,96480.06
2023-07-01T09:06:16.504Z,96477.23
2023-07-01T09:08:43.347Z,96473.49
2023-07-01T09:11:12.133Z,96477.61
2023-07-01T09:13:39.833Z,96475.58
2023-07-01T09:16:07.594Z,96473.68
2023-07-01T09:18:35.551Z,96472.89
2023-07-01T09:21:10.466Z,96471.41
2023-07-01T09:23:40.801Z,96466.78
2023-07-01T09:26:09.196Z,96471.45
2023-07-01T09:28:47.798Z,96472.21
2023-07-01T09:31:16.107Z,96470.45
2023-07-01T09:34:03.726Z,96471.23
2023-07-01T09:36:32.018Z,96464.26
2023-07-01T09:39:01.661Z,96463.74
2023-07-01T09:41:29.220Z,96468.34
2023-07-01T09:43:58.019Z,96465.06
2023-07-01T09:46:43.076Z,96461.36
2023-07-01T09:49:10.482Z,96458.55
2023-07-01T09:51:52.360Z,96458.82
2023-07-01T09:54:30.904Z,96456.96
2023-07-01T09:56:59.940Z,96457.52
2023-07-01T09:59:28.081Z,96457.56
2023-07-01T10:01:56.666Z,96458.34
2023-07-01T10:04:28.984Z,96453.78
2023-07-01T10:06:57.012Z,96453.05
2023-07-01T10:09:26.327Z,96452.85
2023-07-01T10:11:56.445Z,96446.50
2023-07-01T10:14:26.973Z,96443.16
2023-07-01T10:16:54.487Z,96437.71
2023-07-01T10:19:32.353Z,96436.20
2023-07-01T10:22:20.581Z,96437.95
2023-07-01T10:25:09.598Z,96437.79
2023-07-01T10:27:42.659Z,96436.06
2023-07-01T10:30:12.752Z,96432.07
2023-07-01T10:32:40.461Z,96423.00
2023-07-01T10:35:10.096Z,96421.80
2023-07-01T10:37:37.673Z,96422.42
2023-07-01T10:40:31.152Z,96416.02
2023-07-01T10:43:31.260Z,96418.01
2023-07-01T10:46:24.505Z,96410.61
2023-07-01T10:49:04.349Z,96408.66
2023-07-01T10:51:52.342Z,96408.91
2023-07-01T10:54:33.331Z,96409.84
2023-07-01T10:57:14.526Z,96412.41
2023-07-01T10:59:41.826Z,96413.21
2023-07-01T11:02:11.360Z,96413.08
2023-07-01T11:04:54.208Z,96407.41
2023-07-01T11:07:25.409Z,96407.81
2023-07-01T11:10:12.466Z,96404.95
2023-07-01T11:12:39.908Z,96403.24
2023-07-01T11:15:07.675Z,96401.36
2023-07-01T11:17:35.536Z,96400.69
2023-07-01T11:20:04.318Z,96398.05
2023-07-01T11:22:31.626Z,96395.84
2023-07-01T11:25:05.086Z,96388.02
2023-07-01T11:27:32.634Z,96386.09
2023-07-01T11:30:00.217Z,96382.94
2023-07-01T11:32:26.944Z,96383.35
2023-07-01T11:34:57.935Z,96384.09
2023-07-01T11:37:28.142Z,96384.98
2023-07-01T11:39:55.171Z,96386.87
2023-07-01T11:42:26.145Z,96386.86
2023-07-01T11:44:53.449Z,96385.02
2023-07-01T11:47:21.150Z,96383.88
2023-07-01T11:49:49.092Z,96382.65
2023-07-01T11:52:24.985Z,96381.31
2023-07-01T11:54:55.078Z,96380.05
2023-07-01T11:57:23.240Z,96377.45
2023-07-01T11:59:56.947Z,96377.10
2023-07-01T12:02:31.966Z,96374.56
2023-07-01T12:05:00.284Z,96370.11
2023-07-01T12:07:29.018Z,96368.48
2023-07-01T12:09:56.260Z,96369.86
2023-07-01T12:12:37.100Z,96367.75
2023-07-01T12:15:08.784Z,96369.19
2023-07-01T12:17:37.108Z,96368.34
2023-07-01T12:20:09.218Z,96362.39
2023-07-01T12:22:38.407Z,96361.69
2023-07-01T12:25:05.939Z,96358.76
2023-07-01T12:27:34.086Z,96359.08
2023-07-01T12:30:01.770Z,96358.45
2023-07-01T12:32:28.812Z,96358.30
2023-07-01T12:34:57.677Z,96359.13
2023-07-01T12:37:26.003Z,96353.66
2023-07-01T12:39:54.317Z,96353.35
2023-07-01T12:42:22.757Z,96350.71
2023-07-01T12:44:49.596Z,96350.91
2023-07-01T12:47:17.058Z,96351.19
2023-07-01T12:49:44.179Z,96352.36
2023-07-01T12:52:11.003Z,96353.66
2023-07-01T12:54:38.696Z,96356.58
2023-07-01T12:57:05.539Z,96351.77
2023-07-01T12:59:32.585Z,96348.61
2023-07-01T13:01:59.398Z,96345.59
2023-07-01T13:04:27.632Z,96343.03
2023-07-01T13:06:54.677Z,96342.64
2023-07-01T13:09:44.277Z,96344.34
2023-07-01T13:12:13.434Z,96342.55
2023-07-01T13:14:40.466Z,96336.97
2023-07-01T13:17:07.701Z,96330.95
2023-07-01T13:19:35.049Z,96338.45
2023-07-01T13:22:01.791Z,96335.20
2023-07-01T13:24:28.867Z,96331.17
2023-07-01T13:27:01.557Z,96330.38
2023-07-01T13:29:32.384Z,96326.73
2023-07-01T13:32:03.957Z,96328.45
2023-07-01T13:34:38.358Z,96324.23
2023-07-01T13:37:05.797Z,96321.70
2023-07-01T13:39:45.347Z,96320.92
2023-07-01T13:42:15.980Z,96317.02
2023-07-01T13:44:48.881Z,96312.07
2023-07-01T13:47:31.279Z,96307.48
2023-07-01T13:49:58.524Z,96305.35
2023-07-01T13:52:25.606Z,96300.04
2023-07-01T13:54:52.593Z,96304.77
2023-07-01T13:57:29.078Z,96304.36
2023-07-01T13:59:57.282Z,96301.05
2023-07-01T14:02:25.568Z,96300.17
2023-07-01T14:04:52.904Z,96294.77
2023-07-01T14:07:19.888Z,96297.05
2023-07-01T14:09:47.685Z,96291.21
2023-07-01T14:12:17.333Z,96295.79
2023-07-01T14:14:45.449Z,96289.48
2023-07-01T14:17:19.260Z,96291.95
2023-07-01T14:19:54.378Z,96291.14
2023-07-01T14:22:21.761Z,96289.13
2023-07-01T14:24:49.258Z,96292.05
2023-07-01T14:27:27.164Z,96289.86
2023-07-01T14:29:54.371Z,96286.77
2023-07-01T14:32:21.148Z,96280.21
2023-07-01T14:34:47.853Z,96281.66
2023-07-01T14:37:15.520Z,96276.56
2023-07-01T14:39:47.884Z,96275.92
2023-07-01T14:42:24.844Z,96273.11
2023-07-01T14:44:52.633Z,96272.27
2023-07-01T14:47:20.302Z,96267.27
2023-07-01T14:49:47.834Z,96261.04
2023-07-01T14:52:16.981Z,96264.38
2023-07-01T14:54:46.584Z,96261.83
2023-07-01T14:57:15.720Z,96258.36
2023-07-01T14:59:43.255Z,96258.73
2023-07-01T15:02:10.284Z,96253.00
2023-07-01T15:04:37.260Z,96250.30
2023-07-01T15:07:04.723Z,96248.95
2023-07-01T15:09:32.045Z,96246.80
2023-07-01T15:11:59.374Z,96248.23
2023-07-01T15:14:26.384Z,96249.01
2023-07-01T15:16:54.600Z,96251.00
2023-07-01T15:19:23.050Z,96246.48
2023-07-01T15:21:50.420Z,96242.07
2023-07-01T15:24:17.539Z,96239.48
2023-07-01T15:26:44.409Z,96238.75
2023-07-01T15:29:11.994Z,96240.46
2023-07-01T15:31:39.003Z,96243.27
2023-07-01T15:34:06.182Z,96243.04
2023-07-01T15:36:32.893Z,96245.40
2023-07-01T15:38:59.622Z,96242.95
2023-07-01T15:41:41.658Z,96240.00
2023-07-01T15:44:14.214Z,96238.50
2023-07-01T15:46:41.482Z,96239.58
2023-07-01T15:49:08.776Z,96237.92
2023-07-01T15:51:36.521Z,96237.06
2023-07-01T15:54:03.765Z,96234.09
2023-07-01T15:56:31.039Z,96233.31
2023-07-01T15:58:58.971Z,96232.63
2023-07-01T16:01:27.218Z,96228.66
2023-07-01T16:03:54.548Z,96226.44
2023-07-01T16:06:22.710Z,96226.48
2023-07-01T16:08:52.423Z,96223.18
2023-07-01T16:11:31.235Z,96225.91
2023-07-01T16:14:01.255Z,96228.83
2023-07-01T16:19:04.276Z,96228.68
2023-07-01T16:21:31.618Z,96225.29
2023-07-01T16:23:59.059Z,96225.98
2023-07-01T16:26:42.224Z,96226.80
2023-07-01T16:29:09.380Z,96224.25
2023-07-01T16:31:38.741Z,96221.64
2023-07-01T16:34:11.738Z,96222.43
2023-07-01T16:36:39.656Z,96222.35
2023-07-01T16:39:12.526Z,96221.81
2023-07-01T16:41:40.107Z,96218.13
2023-07-01T16:44:07.296Z,96217.48
2023-07-01T16:46:39.038Z,96218.28
2023-07-01T16:49:08.770Z,96218.63
2023-07-01T16:51:38.009Z,96222.27
2023-07-01T16:54:05.631Z,96219.84
2023-07-01T16:56:53.265Z,96217.83
2023-07-01T16:59:32.846Z,96220.89
2023-07-01T17:01:59.882Z,96219.31
2023-07-01T17:04:31.704Z,96221.34
2023-07-01T17:06:59.389Z,96223.19
2023-07-01T17:09:53.068Z,96222.42
2023-07-01T17:12:31.988Z,96226.02
2023-07-01T17:15:00.238Z,96224.40
2023-07-01T17:17:33.140Z,96221.70
2023-07-01T17:20:06.538Z,96223.57
2023-07-01T17:22:34.833Z,96215.94
2023-07-01T17:25:02.498Z,96216.01
2023-07-01T17:27:29.428Z,96212.08
2023-07-01T17:29:57.861Z,96210.16
2023-07-01T17:32:24.976Z,96210.41
2023-07-01T17:35:04.439Z,96212.64
2023-07-01T17:37:31.166Z,96215.30
2023-07-01T17:39:58.851Z,96215.94
2023-07-01T17:42:25.911Z,96217.70
2023-07-01T17:44:55.724Z,96219.52
2023-07-01T17:47:23.181Z,96220.48
2023-07-01T17:49:50.426Z,96220.87
2023-07-01T17:52:17.522Z,96219.81
2023-07-01T17:54:44.910Z,96221.92
2023-07-01T17:57:12.682Z,96224.17
2023-07-01T17:59:39.894Z,96220.73
2023-07-01T18:02:07.879Z,96225.41
2023-07-01T18:04:34.998Z,96225.77
2023-07-01T18:07:01.947Z,96223.23
2023-07-01T18:09:28.904Z,96224.96
2023-07-01T18:11:56.357Z,96225.27
2023-07-01T18:14:26.505Z,96226.42
2023-07-01T18:16:54.088Z,96224.08
2023-07-01T18:19:22.489Z,96230.36
2023-07-01T18:21:49.501Z,96228.25
2023-07-01T18:24:17.327Z,96230.98
2023-07-01T18:26:47.914Z,96234.28
2023-07-01T18:29:17.599Z,96244.33
2023-07-01T18:31:44.447Z,96241.44
2023-07-01T18:34:14.152Z,96247.06
2023-07-01T18:36:41.194Z,96248.86
2023-07-01T18:39:09.061Z,96248.90
2023-07-01T18:41:37.352Z,96253.92
2023-07-01T18:44:06.965Z,96253.80
2023-07-01T18:46:34.402Z,96254.31
2023-07-01T18:49:02.141Z,96257.04
2023-07-01T18:51:30.077Z,96263.33
2023-07-01T18:53:57.946Z,96262.48
2023-07-01T18:56:25.700Z,96263.16
2023-07-01T18:58:53.695Z,96267.66
2023-07-01T19:01:20.426Z,96263.15
2023-07-01T19:03:47.619Z,96265.11
2023-07-01T19:06:15.275Z,96265.86
2023-07-01T19:08:43.253Z,96271.48
2023-07-01T19:11:12.217Z,96274.64
2023-07-01T19:13:39.792Z,96277.75
2023-07-01T19:16:07.501Z,96281.44
2023-07-01T19:18:34.723Z,96279.42
2023-07-01T19:21:01.898Z,96281.11
2023-07-01T19:23:34.593Z,96282.98
2023-07-01T19:26:01.345Z,96281.45
2023-07-01T19:28:28.387Z,96283.48
2023-07-01T19:30:56.287Z,96284.38
2023-07-01T19:33:23.579Z,96288.42
2023-07-01T19:35:53.315Z,96288.41
2023-07-01T19:38:21.288Z,96291.38
2023-07-01T19:40:49.073Z,96290.47
2023-07-01T19:43:16.459Z,96288.52
2023-07-01T19:45:44.328Z,96289.16
2023-07-01T19:48:11.536Z,96288.33
2023-07-01T19:50:40.138Z,96291.63
2023-07-01T19:53:07.940Z,96290.36
2023-07-01T19:55:34.836Z,96293.92
2023-07-01T19:58:01.555Z,96297.23
2023-07-01T20:00:29.193Z,96300.74
2023-07-01T20:02:56.403Z,96301.50
2023-07-01T20:05:23.653Z,96300.17
2023-07-01T20:07:51.205Z,96298.38
2023-07-01T20:10:28.931Z,96301.36
2023-07-01T20:12:59.006Z,96307.85
2023-07-01T20:15:26.588Z,96309.02
2023-07-01T20:17:53.483Z,96306.34
2023-07-01T20:20:20.374Z,96307.56
2023-07-01T20:22:47.546Z,96307.20
2023-07-01T20:25:14.472Z,96303.77
2023-07-01T20:27:41.445Z,96302.02
2023-07-01T20:30:11.798Z,96302.98
2023-07-01T20:32:39.153Z,96303.18
2023-07-01T20:35:07.166Z,96309.80
2023-07-01T20:37:34.252Z,96311.27
2023-07-01T20:40:04.398Z,96317.55
2023-07-01T20:42:31.412Z,96318.28
2023-07-01T20:44:58.232Z,96319.14
2023-07-01T20:47:24.992Z,96321.42
2023-07-01T20:49:52.566Z,96316.64
2023-07-01T20:52:21.165Z,96318.46
2023-07-01T20:54:48.057Z,96314.09
2023-07-01T20:57:16.851Z,96309.97
2023-07-01T20:59:44.829Z,96310.61
2023-07-01T21:02:13.049Z,96308.75
2023-07-01T21:04:40.279Z,96307.23
2023-07-01T21:07:08.473Z,96305.92
2023-07-01T21:09:36.058Z,96305.63
2023-07-01T21:12:04.070Z,96304.80
2023-07-01T21:14:31.328Z,96303.52
2023-07-01T21:16:58.219Z,96303.34
2023-07-01T21:19:27.339Z,96301.14
2023-07-01T21:21:54.546Z,96299.84
2023-07-01T21:24:21.315Z,96294.12
2023-07-01T21:26:48.395Z,96295.53
2023-07-01T21:29:17.487Z,96298.14
2023-07-01T21:31:52.048Z,96300.54
2023-07-01T21:34:20.908Z,96298.44
2023-07-01T21:36:52.818Z,96295.34
2023-07-01T21:39:22.677Z,96291.59
2023-07-01T21:41:49.401Z,96290.65
2023-07-01T21:44:17.953Z,96292.69
2023-07-01T21:46:45.267Z,96292.31
2023-07-01T21:49:13.965Z,96290.14
2023-07-01T21:52:07.178Z,96289.09
2023-07-01T21:54:34.062Z,96287.09
2023-07-01T21:57:01.064Z,96287.13
2023-07-01T21:59:28.049Z,96287.94
2023-07-01T22:01:54.936Z,96290.11
2023-07-01T22:04:22.020Z,96287.17
2023-07-01T22:06:49.107Z,96286.52
2023-07-01T22:09:16.736Z,96288.25
2023-07-01T22:11:44.593Z,96283.05
2023-07-01T22:14:12.695Z,96282.45
2023-07-01T22:16:40.213Z,96282.80
2023-07-01T22:19:07.626Z,96283.63
2023-07-01T22:21:34.517Z,96280.28
2023-07-01T22:24:05.716Z,96279.04
2023-07-01T22:26:34.341Z,96277.70
2023-07-01T22:29:01.202Z,96278.46
2023-07-01T22:31:29.249Z,96276.47
2023-07-01T22:33:57.553Z,96276.52
2023-07-01T22:36:25.999Z,96274.65
2023-07-01T22:38:55.949Z,96271.59
2023-07-01T22:41:22.817Z,96271.36
2023-07-01T22:43:49.557Z,96272.81
2023-07-01T22:46:16.462Z,96270.84
2023-07-01T22:48:45.783Z,96267.80
2023-07-01T22:51:12.704Z,96262.21
2023-07-01T22:53:40.921Z,96265.48
2023-07-01T22:56:07.818Z,96264.36
2023-07-01T22:58:35.760Z,96263.25
2023-07-01T23:01:02.485Z,96262.77
2023-07-01T23:03:29.740Z,96263.52
2023-07-01T23:05:56.540Z,96256.83
2023-07-01T23:08:23.728Z,96258.33
2023-07-01T23:10:51.336Z,96256.87
2023-07-01T23:13:19.938Z,96256.50
2023-07-01T23:15:47.024Z,96253.39
2023-07-01T23:18:13.834Z,96255.25
2023-07-01T23:20:41.497Z,96254.94
2023-07-01T23:23:08.498Z,96259.23
2023-07-01T23:25:35.651Z,96259.16
2023-07-01T23:28:10.538Z,96252.87
2023-07-01T23:30:42.099Z,96248.58
2023-07-01T23:33:09.776Z,96256.02
2023-07-01T23:35:37.331Z,96260.55
2023-07-01T23:38:04.174Z,96268.38
2023-07-01T23:40:31.492Z,96264.77
2023-07-01T23:42:58.716Z,96260.12
2023-07-01T23:45:26.121Z,96260.55
2023-07-01T23:47:53.416Z,96266.21
2023-07-01T23:50:22.037Z,96264.85
2023-07-01T23:52:48.922Z,96267.42
2023-07-01T23:55:16.194Z,96265.84
2023-07-01T23:57:43.659Z,96261.39
